Time;durP1;ratioP1;P1;durP2;ratioP2;P2;SDS_P1;SDS_P2;PMS_P1;PMS_P2;Temp;Humidity;BMP_temperature;BMP_pressure;BME280_temperature;BME280_humidity;BME280_pressure;Samples;Min_cycle;Max_cycle;Signal;HPM_P1;HPM_P2
2023/02/21 02:15:15;;;;;;;3.67;2.40;;;;;;;5.78;80.66;152846.53;4900508;29;20469;-78
2023/02/21 02:17:54;;;;;;;3.50;2.90;;;;;;;5.73;79.93;152833.63;4915013;29;20461;-78
2023/02/21 02:21:05;;;;;;;4.23;2.50;;;;;;;5.74;79.74;152834.94;4915630;29;20498;-78
2023/02/21 02:23:56;;;;;;;4.20;2.70;;;;;;;5.71;81.15;152828.47;4891943;29;20441;-77
2023/02/21 02:27:02;;;;;;;7.63;2.40;;;;;;;5.74;79.93;152836.22;4877085;29;20930;-78
2023/02/21 02:29:48;;;;;;;3.80;2.20;;;;;;;5.71;79.98;152828.47;4913760;29;20534;-78
2023/02/21 02:32:32;;;;;;;2.30;1.90;;;;;;;5.69;80.74;152823.34;4913988;29;20834;-78
2023/02/21 02:35:07;;;;;;;4.33;2.77;;;;;;;5.69;80.83;152823.34;4911954;29;20443;-78
2023/02/21 02:37:39;;;;;;;3.70;3.00;;;;;;;5.65;80.31;152813.00;4893581;29;20873;-77
2023/02/21 02:40:11;;;;;;;6.30;2.40;;;;;;;5.70;80.45;152824.59;4916200;29;20507;-78
2023/02/21 02:42:47;;;;;;;2.83;2.20;;;;;;;5.64;80.18;152810.41;4917596;29;20440;-78
2023/02/21 02:45:17;;;;;;;5.93;2.23;;;;;;;5.65;81.23;152813.00;4908636;29;20541;-78
2023/02/21 02:47:45;;;;;;;2.43;1.90;;;;;;;5.67;81.94;152818.16;4897812;29;20461;-78
2023/02/21 02:50:14;;;;;;;4.57;2.90;;;;;;;5.62;80.70;152803.97;4927931;29;20654;-78
2023/02/21 02:52:50;;;;;;;3.73;3.00;;;;;;;5.56;80.95;152788.50;4906590;29;20532;-78
2023/02/21 02:55:39;;;;;;;3.60;2.80;;;;;;;5.52;80.94;152779.47;4899539;29;20471;-77
2023/02/21 02:58:08;;;;;;;5.00;3.10;;;;;;;5.51;81.86;152776.88;4890181;29;20459;-79
2023/02/21 03:00:36;;;;;;;3.77;2.80;;;;;;;5.55;81.57;152787.22;4890420;29;20474;-79
2023/02/21 03:03:20;;;;;;;3.90;2.30;;;;;;;5.53;80.74;152782.06;4936699;29;20456;-79
2023/02/21 03:05:59;;;;;;;3.20;1.83;;;;;;;5.55;80.84;152787.22;4913320;29;20475;-79
2023/02/21 03:08:32;;;;;;;3.57;2.33;;;;;;;5.58;81.89;152794.97;4906966;29;20513;-79
2023/02/21 03:11:02;;;;;;;2.93;2.57;;;;;;;5.50;81.00;152774.31;4901449;29;20475;-79
2023/02/21 03:13:35;;;;;;;3.60;2.80;;;;;;;5.47;81.82;152766.59;4919481;29;20496;-78
2023/02/21 03:16:08;;;;;;;5.03;3.63;;;;;;;5.42;81.98;152755.00;4912005;29;20456;-78
2023/02/21 03:18:41;;;;;;;6.90;3.87;;;;;;;5.41;81.07;152751.09;4914614;29;20483;-79
2023/02/21 03:21:12;;;;;;;4.27;3.47;;;;;;;5.36;82.59;152739.50;4916504;29;20574;-78
2023/02/21 03:23:39;;;;;;;3.80;2.97;;;;;;;5.37;82.06;152740.81;4894892;29;20448;-78
2023/02/21 03:26:08;;;;;;;3.97;2.63;;;;;;;5.35;82.16;152736.91;4917903;29;20479;-79
2023/02/21 03:28:37;;;;;;;3.10;1.97;;;;;;;5.31;82.50;152726.63;4917312;29;20450;-79
2023/02/21 03:31:05;;;;;;;4.30;2.53;;;;;;;5.33;82.26;152731.78;4917657;29;20478;-79
2023/02/21 03:33:32;;;;;;;3.37;2.17;;;;;;;5.33;82.45;152730.47;4901900;29;20464;-78
2023/02/21 03:35:59;;;;;;;4.10;2.50;;;;;;;5.32;82.86;152727.91;4922394;29;20519;-78
2023/02/21 03:38:29;;;;;;;3.70;2.40;;;;;;;5.31;82.05;152725.31;4915559;29;20516;-78
2023/02/21 03:40:56;;;;;;;5.80;2.40;;;;;;;5.29;82.12;152720.19;4891362;29;20551;-78
2023/02/21 03:43:23;;;;;;;2.80;2.07;;;;;;;5.29;82.47;152720.19;4920384;29;20862;-79
2023/02/21 03:45:56;;;;;;;2.40;2.20;;;;;;;5.24;82.78;152707.28;4893025;29;20863;-79
2023/02/21 03:48:23;;;;;;;3.73;1.90;;;;;;;5.21;83.04;152699.56;4933079;29;20467;-79
2023/02/21 03:50:51;;;;;;;6.60;2.60;;;;;;;5.21;82.61;152699.56;4901973;29;20516;-79
2023/02/21 03:53:19;;;;;;;2.43;1.90;;;;;;;5.17;82.69;152690.50;4898838;29;20432;-77
2023/02/21 03:55:47;;;;;;;2.07;1.77;;;;;;;5.17;82.77;152689.22;4908697;29;21033;-79
2023/02/21 03:58:20;;;;;;;4.50;2.27;;;;;;;5.17;82.90;152689.22;4910353;29;20453;-79
2023/02/21 04:00:49;;;;;;;2.57;2.13;;;;;;;5.17;82.90;152689.22;4903897;29;20487;-79
2023/02/21 04:03:17;;;;;;;2.53;1.90;;;;;;;5.16;82.32;152686.66;4898243;29;20510;-79
2023/02/21 04:05:53;;;;;;;3.33;2.20;;;;;;;5.19;82.83;152694.41;4896513;29;20559;-79
2023/02/21 04:08:20;;;;;;;2.33;1.90;;;;;;;5.19;82.67;152694.41;4920301;29;20884;-79
2023/02/21 04:10:48;;;;;;;2.60;2.20;;;;;;;5.22;81.98;152702.09;4901917;29;20964;-79
2023/02/21 04:13:15;;;;;;;3.80;2.00;;;;;;;5.25;82.72;152709.84;4915498;29;20461;-78
2023/02/21 04:15:45;;;;;;;7.30;2.30;;;;;;;5.24;82.10;152707.28;4933369;29;20551;-79
2023/02/21 04:18:12;;;;;;;2.87;1.93;;;;;;;5.23;82.13;152704.69;4911730;29;20544;-79
2023/02/21 04:20:40;;;;;;;2.90;2.17;;;;;;;5.22;82.43;152702.09;4910359;29;20575;-79
2023/02/21 04:23:10;;;;;;;5.47;2.20;;;;;;;5.23;82.07;152704.69;4909429;29;20461;-79
2023/02/21 04:25:36;;;;;;;3.90;2.40;;;;;;;5.21;81.74;152700.84;4913581;29;20878;-79
2023/02/21 04:28:10;;;;;;;2.70;2.33;;;;;;;5.22;83.07;152703.41;4894620;29;20466;-78
2023/02/21 04:30:37;;;;;;;2.10;1.80;;;;;;;5.23;82.86;152706.00;4895013;29;20512;-79
2023/02/21 04:33:04;;;;;;;3.23;2.50;;;;;;;5.17;81.81;152690.50;4912993;29;20553;-79
2023/02/21 04:35:31;;;;;;;2.67;2.40;;;;;;;5.20;82.34;152698.25;4890132;29;20494;-79
2023/02/21 04:38:02;;;;;;;3.10;2.03;;;;;;;5.17;82.33;152689.22;4897094;29;20970;-79
2023/02/21 04:40:29;;;;;;;2.37;2.03;;;;;;;5.16;82.27;152686.66;4898746;29;20476;-79
2023/02/21 04:42:55;;;;;;;2.80;2.37;;;;;;;5.13;83.00;152680.22;4899415;29;21022;-79
2023/02/21 04:45:24;;;;;;;2.00;1.80;;;;;;;5.11;82.43;152673.78;4914298;29;20469;-79
2023/02/21 04:47:50;;;;;;;3.27;2.13;;;;;;;5.09;82.14;152669.88;4922345;29;21023;-79
2023/02/21 04:50:17;;;;;;;2.97;1.90;;;;;;;5.08;81.77;152666.03;4926030;29;20465;-78
2023/02/21 04:52:44;;;;;;;2.53;1.90;;;;;;;5.02;83.27;152650.56;4933678;29;20449;-78
2023/02/21 04:55:11;;;;;;;4.00;1.63;;;;;;;4.95;82.84;152633.78;4913222;29;20461;-79
2023/02/21 04:57:37;;;;;;;3.03;1.73;;;;;;;4.91;83.34;152624.78;4924021;29;20551;-78
2023/02/21 05:00:06;;;;;;;2.20;2.00;;;;;;;4.87;83.35;152614.47;4929257;29;20474;-79
2023/02/21 05:02:35;;;;;;;3.03;2.40;;;;;;;4.86;83.54;152611.91;4913131;29;20449;-79
2023/02/21 05:05:02;;;;;;;3.80;2.20;;;;;;;4.82;83.21;152601.56;4911409;29;20463;-79
2023/02/21 05:07:28;;;;;;;3.73;2.20;;;;;;;4.80;84.45;152596.44;4912769;29;20871;-79
2023/02/21 05:09:55;;;;;;;2.47;2.27;;;;;;;4.78;83.96;152591.28;4909739;29;20463;-79
2023/02/21 05:12:22;;;;;;;4.93;2.10;;;;;;;4.78;83.39;152590.00;4908926;29;20469;-79
2023/02/21 05:14:48;;;;;;;2.43;1.83;;;;;;;4.78;84.38;152591.28;4922309;29;20570;-78
2023/02/21 05:17:15;;;;;;;3.37;1.87;;;;;;;4.81;84.12;152597.72;4932562;29;20464;-79
2023/02/21 05:19:43;;;;;;;2.50;1.97;;;;;;;4.79;84.12;152593.84;4930408;29;20483;-78
2023/02/21 05:22:10;;;;;;;2.70;2.20;;;;;;;4.73;84.49;152578.41;4930183;29;20558;-79
2023/02/21 05:24:42;;;;;;;2.90;2.03;;;;;;;4.72;84.81;152575.81;4934144;28;20452;-79
2023/02/21 05:27:10;;;;;;;4.70;2.00;;;;;;;4.74;84.02;152580.97;4923504;29;20452;-79
2023/02/21 05:29:37;;;;;;;2.70;2.27;;;;;;;4.75;85.13;152582.25;4925424;29;20837;-79
2023/02/21 05:32:04;;;;;;;2.10;1.50;;;;;;;4.76;84.57;152586.16;4931918;28;20448;-78
2023/02/21 05:34:30;;;;;;;2.90;1.70;;;;;;;4.81;85.21;152597.72;4952809;28;20484;-79
2023/02/21 05:36:58;;;;;;;2.97;2.00;;;;;;;4.82;85.05;152600.28;4949413;29;21045;-79
2023/02/21 05:39:25;;;;;;;2.67;2.00;;;;;;;4.76;84.77;152586.16;4931889;29;20741;-79
2023/02/21 05:41:52;;;;;;;3.93;1.80;;;;;;;4.71;84.69;152573.22;4924432;29;20523;-79
2023/02/21 05:44:19;;;;;;;3.20;2.20;;;;;;;4.69;84.86;152568.06;4962366;28;20503;-79
2023/02/21 05:46:45;;;;;;;3.83;2.53;;;;;;;4.59;84.91;152541.03;4939677;28;20443;-79
2023/02/21 05:49:12;;;;;;;3.27;2.50;;;;;;;4.55;84.55;152532.03;4961687;28;20462;-78
2023/02/21 05:51:42;;;;;;;3.23;2.90;;;;;;;4.53;86.42;152526.84;4935520;29;20466;-78
2023/02/21 05:54:15;;;;;;;3.80;3.00;;;;;;;4.55;85.71;152530.72;4955771;28;20542;-78
2023/02/21 05:56:43;;;;;;;4.23;2.80;;;;;;;4.53;86.01;152525.53;4953297;28;20459;-79
2023/02/21 05:59:10;;;;;;;3.77;2.60;;;;;;;4.51;85.56;152520.41;4933443;29;20502;-79
2023/02/21 06:01:37;;;;;;;6.23;2.73;;;;;;;4.48;85.93;152513.97;4937863;29;20489;-78
2023/02/21 06:04:06;;;;;;;3.77;2.50;;;;;;;4.49;85.96;152515.25;4955106;28;20454;-78
2023/02/21 06:06:33;;;;;;;4.53;3.00;;;;;;;4.43;85.26;152501.09;4927188;29;20468;-79
2023/02/21 06:09:00;;;;;;;4.60;2.90;;;;;;;4.40;85.97;152493.34;4925119;29;20462;-79
2023/02/21 06:11:32;;;;;;;3.90;2.63;;;;;;;4.37;87.83;152485.63;4931157;29;20826;-78
2023/02/21 06:13:59;;;;;;;4.10;2.80;;;;;;;4.40;87.10;152492.06;4943776;28;20447;-78
2023/02/21 06:16:27;;;;;;;3.80;3.03;;;;;;;4.38;87.74;152488.22;4929868;29;20447;-78
2023/02/21 06:18:55;;;;;;;4.10;2.90;;;;;;;4.38;87.36;152488.22;4949781;28;20459;-78
2023/02/21 06:21:22;;;;;;;4.43;3.13;;;;;;;4.45;87.56;152506.22;4943589;28;20586;-79
2023/02/21 06:23:49;;;;;;;3.77;3.30;;;;;;;4.40;86.90;152493.34;4924792;29;20958;-79
2023/02/21 06:26:17;;;;;;;4.17;3.57;;;;;;;4.40;87.48;152493.34;4928426;29;20479;-79
2023/02/21 06:28:45;;;;;;;4.50;4.00;;;;;;;4.43;87.63;152501.09;4905974;29;20453;-79
2023/02/21 06:31:11;;;;;;;4.77;3.37;;;;;;;4.51;87.73;152521.69;4903632;29;20487;-79
2023/02/21 06:33:38;;;;;;;4.10;3.30;;;;;;;4.56;87.52;152534.59;4898808;29;20763;-79
2023/02/21 06:36:06;;;;;;;5.20;4.13;;;;;;;4.59;88.56;152542.31;4920743;29;21119;-79
2023/02/21 06:38:33;;;;;;;4.13;3.73;;;;;;;4.65;88.21;152557.78;4924299;29;20460;-79
2023/02/21 06:40:59;;;;;;;4.03;3.10;;;;;;;4.69;87.66;152568.06;4925750;29;20488;-79
2023/02/21 06:43:26;;;;;;;3.20;2.90;;;;;;;4.73;87.14;152578.41;4923185;29;20445;-79
2023/02/21 06:45:54;;;;;;;4.03;3.60;;;;;;;4.81;87.73;152599.03;4926123;29;20501;-79
2023/02/21 06:48:21;;;;;;;6.67;3.40;;;;;;;4.89;86.77;152619.66;4911231;29;20489;-78
2023/02/21 06:50:48;;;;;;;3.73;3.30;;;;;;;5.01;87.56;152647.97;4907250;29;20568;-78
2023/02/21 06:53:14;;;;;;;5.17;2.80;;;;;;;5.09;86.83;152669.88;4921069;29;20551;-78
2023/02/21 06:55:41;;;;;;;3.53;2.97;;;;;;;5.11;87.48;152673.78;4922156;29;20671;-79
2023/02/21 06:58:08;;;;;;;8.40;3.73;;;;;;;5.17;86.73;152689.22;4905216;29;20461;-78
2023/02/21 07:00:34;;;;;;;4.43;3.33;;;;;;;5.27;85.90;152716.28;4923342;29;20600;-79
2023/02/21 07:03:03;;;;;;;6.57;3.53;;;;;;;5.34;85.55;152733.06;4900943;29;20511;-78
2023/02/21 07:05:33;;;;;;;4.83;3.47;;;;;;;5.42;85.27;152755.00;4904378;29;20539;-78
2023/02/21 07:08:00;;;;;;;4.43;3.23;;;;;;;5.58;85.47;152794.97;4923564;29;20546;-79
2023/02/21 07:10:27;;;;;;;3.73;3.17;;;;;;;5.86;85.12;152867.22;4905899;29;20815;-78
2023/02/21 07:12:53;;;;;;;8.27;3.60;;;;;;;6.19;85.84;152949.78;4905391;29;20561;-78
2023/02/21 07:15:20;;;;;;;6.33;3.57;;;;;;;6.48;85.27;153025.91;4927342;29;20457;-79
2023/02/21 07:17:47;;;;;;;3.63;3.33;;;;;;;6.89;84.45;153129.13;4909732;29;20465;-79
2023/02/21 07:20:15;;;;;;;4.30;3.23;;;;;;;7.27;83.29;153227.28;4922941;29;20584;-78
2023/02/21 07:22:42;;;;;;;3.80;3.10;;;;;;;7.62;81.48;153317.69;4907560;29;20952;-78
2023/02/21 07:25:08;;;;;;;3.13;2.83;;;;;;;8.04;79.38;153424.91;4923875;28;20492;-79
2023/02/21 07:27:35;;;;;;;5.60;3.13;;;;;;;8.33;78.47;153498.63;4912339;29;20864;-78
2023/02/21 07:30:02;;;;;;;5.70;3.40;;;;;;;8.66;76.65;153582.66;4908479;29;20824;-78
2023/02/21 07:32:29;;;;;;;6.67;3.17;;;;;;;8.96;75.79;153661.50;4911496;29;20461;-78
2023/02/21 07:34:55;;;;;;;3.80;2.97;;;;;;;9.26;74.67;153737.81;4912037;29;20721;-77
2023/02/21 07:37:26;;;;;;;4.60;3.40;;;;;;;9.50;73.16;153798.59;4903034;29;20632;-78
2023/02/21 07:39:53;;;;;;;4.67;3.70;;;;;;;9.77;71.09;153869.75;4905868;29;20465;-78
2023/02/21 07:42:19;;;;;;;7.93;3.30;;;;;;;9.95;70.62;153913.75;4906893;29;20450;-78
2023/02/21 07:44:47;;;;;;;4.60;2.93;;;;;;;10.18;69.21;153973.34;4898488;29;20456;-79
2023/02/21 07:47:14;;;;;;;3.60;2.90;;;;;;;10.43;69.13;154038.09;4927252;29;20451;-79
2023/02/21 07:49:41;;;;;;;3.73;2.90;;;;;;;10.56;66.70;154071.75;4920966;29;20532;-79
2023/02/21 07:52:08;;;;;;;4.50;3.47;;;;;;;10.83;67.06;154141.63;4932122;29;20445;-78
2023/02/21 07:54:36;;;;;;;3.87;3.00;;;;;;;11.11;65.60;154211.59;4925004;29;20489;-78
2023/02/21 07:57:02;;;;;;;4.07;2.90;;;;;;;11.32;65.24;154267.31;4901828;29;20568;-79
2023/02/21 07:59:30;;;;;;;9.40;3.57;;;;;;;11.50;64.47;154313.94;4894508;29;20961;-78
2023/02/21 08:01:56;;;;;;;3.63;3.03;;;;;;;11.59;62.59;154335.97;4905416;29;20509;-77
2023/02/21 08:04:24;;;;;;;3.30;2.83;;;;;;;11.71;62.36;154367.09;4902297;29;20459;-77
2023/02/21 08:06:51;;;;;;;3.63;2.87;;;;;;;11.82;63.43;154395.63;4899657;29;20458;-77
2023/02/21 08:09:18;;;;;;;5.23;3.40;;;;;;;11.96;62.52;154431.94;4886788;29;20458;-77
2023/02/21 08:11:46;;;;;;;4.87;3.33;;;;;;;11.95;61.33;154429.31;4905668;29;20468;-77
2023/02/21 08:14:13;;;;;;;4.10;3.37;;;;;;;11.83;61.66;154396.94;4906177;29;20458;-78
2023/02/21 08:16:39;;;;;;;5.20;3.40;;;;;;;11.73;61.20;154371.03;4905348;29;20471;-78
2023/02/21 08:19:08;;;;;;;4.67;3.57;;;;;;;11.77;62.08;154382.66;4902472;29;20493;-78
2023/02/21 08:21:34;;;;;;;5.50;3.60;;;;;;;11.79;61.13;154387.84;4905051;29;21011;-78
2023/02/21 08:24:01;;;;;;;7.93;3.53;;;;;;;11.57;60.91;154332.06;4891968;29;20493;-77
2023/02/21 08:26:28;;;;;;;5.00;3.70;;;;;;;11.47;61.59;154304.84;4905468;29;20789;-78
2023/02/21 08:28:56;;;;;;;3.87;3.50;;;;;;;11.40;61.50;154286.72;4885689;29;20461;-77
2023/02/21 08:31:23;;;;;;;4.83;3.40;;;;;;;11.34;62.47;154272.47;4901557;29;20460;-76
2023/02/21 08:33:50;;;;;;;3.70;3.17;;;;;;;11.24;61.07;154246.56;4906829;29;20487;-77
2023/02/21 08:36:16;;;;;;;5.90;3.90;;;;;;;11.20;63.34;154234.94;4903317;29;20466;-77
2023/02/21 08:38:43;;;;;;;5.20;3.97;;;;;;;11.30;62.31;154262.13;4901827;29;20457;-77
2023/02/21 08:41:10;;;;;;;8.07;4.50;;;;;;;11.17;62.66;154227.16;4906235;29;20484;-77
2023/02/21 08:43:37;;;;;;;4.73;4.20;;;;;;;11.00;62.07;154184.38;4901290;29;20499;-77
2023/02/21 08:46:05;;;;;;;7.43;4.30;;;;;;;10.87;63.46;154152.03;4905349;29;20567;-77
2023/02/21 08:48:32;;;;;;;6.70;4.40;;;;;;;10.87;63.33;154152.03;4903767;29;20452;-77
2023/02/21 08:50:58;;;;;;;4.13;3.73;;;;;;;10.78;64.08;154127.38;4889780;29;20551;-80
2023/02/21 08:53:25;;;;;;;5.80;4.30;;;;;;;10.92;63.33;154164.97;4888927;29;20457;-78
2023/02/21 08:55:52;;;;;;;4.70;4.13;;;;;;;10.86;63.47;154149.41;4901614;29;20461;-79
2023/02/21 08:58:18;;;;;;;5.00;4.00;;;;;;;10.90;64.03;154159.78;4894209;29;21191;-76
2023/02/21 09:00:45;;;;;;;5.83;4.90;;;;;;;10.85;64.28;154146.84;4904713;29;20485;-76
2023/02/21 09:03:13;;;;;;;6.50;4.80;;;;;;;10.84;63.78;154144.25;4903608;29;20964;-76
2023/02/21 09:05:40;;;;;;;6.50;4.60;;;;;;;10.77;63.96;154124.81;4901282;29;20498;-77
2023/02/21 09:08:09;;;;;;;6.80;5.07;;;;;;;10.77;63.59;154126.13;4900458;29;20461;-77
2023/02/21 09:10:35;;;;;;;5.97;4.80;;;;;;;10.72;64.48;154113.13;4903321;29;20471;-77
2023/02/21 09:13:03;;;;;;;8.17;5.20;;;;;;;10.74;64.55;154118.34;4905263;29;20450;-77
2023/02/21 09:15:30;;;;;;;5.57;4.20;;;;;;;10.73;65.08;154115.75;4901566;29;20859;-77
2023/02/21 09:17:57;;;;;;;7.47;5.23;;;;;;;10.73;64.43;154115.75;4906465;29;20786;-77
2023/02/21 09:20:26;;;;;;;5.80;5.20;;;;;;;10.78;65.23;154128.69;4904056;29;20504;-77
2023/02/21 09:22:53;;;;;;;9.93;5.30;;;;;;;10.91;65.30;154161.06;4901759;29;20870;-77
2023/02/21 09:25:23;;;;;;;10.40;5.40;;;;;;;10.83;64.58;154140.31;4901323;29;20487;-78
2023/02/21 09:27:50;;;;;;;9.67;5.50;;;;;;;10.77;65.02;154126.13;4886527;29;20523;-78
2023/02/21 09:30:20;;;;;;;6.83;5.37;;;;;;;10.80;65.43;154132.59;4902174;29;20472;-78
2023/02/21 09:32:47;;;;;;;5.70;4.50;;;;;;;10.81;64.65;154135.16;4901898;29;20453;-76
2023/02/21 09:35:14;;;;;;;5.13;4.67;;;;;;;10.83;65.10;154141.63;4902960;29;20554;-77
2023/02/21 09:37:43;;;;;;;4.97;4.17;;;;;;;10.82;65.36;154139.06;4900727;29;20465;-77
2023/02/21 09:40:18;;;;;;;9.40;5.13;;;;;;;10.80;66.37;154133.84;4898905;29;20460;-77
2023/02/21 09:42:45;;;;;;;6.43;4.70;;;;;;;10.83;65.45;154141.63;4903088;29;20543;-77
2023/02/21 09:45:15;;;;;;;5.60;5.00;;;;;;;10.89;65.08;154157.19;4911607;29;20541;-77
2023/02/21 09:47:41;;;;;;;5.43;4.80;;;;;;;10.98;65.73;154180.53;4923370;29;20463;-76
2023/02/21 09:50:13;;;;;;;6.20;5.17;;;;;;;11.00;66.39;154185.69;4909300;29;20532;-76
2023/02/21 09:52:46;;;;;;;6.80;5.10;;;;;;;11.17;64.54;154227.16;4905568;29;20450;-77
2023/02/21 09:55:28;;;;;;;6.83;5.03;;;;;;;11.28;64.23;154255.66;4873139;29;20465;-77
2023/02/21 09:57:56;;;;;;;10.97;4.80;;;;;;;11.28;64.78;154255.66;4905248;29;20450;-79
2023/02/21 10:00:24;;;;;;;9.50;4.60;;;;;;;11.31;63.99;154264.69;4902353;29;20556;-77
2023/02/21 10:03:06;;;;;;;4.30;3.90;;;;;;;11.27;64.01;154253.03;4902851;29;20477;-77
2023/02/21 10:05:43;;;;;;;6.10;4.33;;;;;;;11.48;63.40;154307.47;4899291;29;20457;-77
2023/02/21 10:08:17;;;;;;;6.10;4.77;;;;;;;11.50;63.40;154313.94;4900760;29;20557;-77
2023/02/21 10:10:46;;;;;;;5.70;4.17;;;;;;;11.70;62.50;154364.53;4902303;29;20477;-77
2023/02/21 10:13:22;;;;;;;5.97;4.23;;;;;;;11.78;62.55;154385.22;4901219;29;20489;-77
2023/02/21 10:15:53;;;;;;;3.53;3.20;;;;;;;11.73;62.72;154371.03;4902691;29;20453;-77
2023/02/21 10:18:28;;;;;;;4.70;4.20;;;;;;;11.84;61.69;154399.50;4901266;29;20536;-77
2023/02/21 10:21:00;;;;;;;7.03;4.00;;;;;;;12.03;61.44;154450.06;4903222;29;20940;-77
2023/02/21 10:23:32;;;;;;;5.60;3.80;;;;;;;12.05;61.09;154455.25;4900290;29;20489;-77
2023/02/21 10:26:02;;;;;;;6.43;4.40;;;;;;;12.03;60.78;154448.75;4905260;29;20889;-77
2023/02/21 10:28:29;;;;;;;5.37;4.30;;;;;;;11.94;61.52;154426.72;4900722;29;20942;-77
2023/02/21 10:30:59;;;;;;;6.27;3.27;;;;;;;11.85;62.02;154403.41;4901438;29;20458;-77
2023/02/21 10:33:25;;;;;;;5.57;4.67;;;;;;;11.94;61.67;154426.72;4887779;29;20460;-77
2023/02/21 10:35:53;;;;;;;7.40;4.53;;;;;;;12.01;61.97;154443.59;4905400;29;20965;-77
2023/02/21 10:38:23;;;;;;;4.77;4.03;;;;;;;11.88;62.63;154411.19;4903719;29;20446;-78
2023/02/21 10:40:54;;;;;;;7.30;4.63;;;;;;;12.06;61.77;154456.53;4901482;29;20469;-78
2023/02/21 10:43:23;;;;;;;9.23;4.40;;;;;;;12.26;61.18;154508.38;4901671;29;20939;-77
2023/02/21 10:45:53;;;;;;;6.40;4.70;;;;;;;12.19;61.27;154491.56;4906189;29;20465;-77
2023/02/21 10:48:21;;;;;;;10.10;5.93;;;;;;;11.96;61.81;154431.94;4887205;29;20478;-77
2023/02/21 10:50:53;;;;;;;6.07;5.37;;;;;;;12.24;61.12;154503.19;4907393;29;20870;-77
2023/02/21 10:53:26;;;;;;;5.73;4.67;;;;;;;12.20;61.57;154492.84;4904878;29;20546;-77
2023/02/21 10:56:23;;;;;;;7.07;6.23;;;;;;;12.41;61.03;154547.31;4906261;29;20465;-77
2023/02/21 10:58:52;;;;;;;7.67;5.40;;;;;;;12.58;60.56;154590.06;4905728;29;20976;-77
2023/02/21 11:01:20;;;;;;;5.67;5.07;;;;;;;12.56;60.45;154586.19;4906547;29;20973;-78
2023/02/21 11:03:50;;;;;;;7.30;5.30;;;;;;;12.55;60.50;154582.34;4893195;29;20461;-77
2023/02/21 11:06:27;;;;;;;5.67;4.63;;;;;;;12.48;60.37;154564.16;4908204;29;20973;-77
2023/02/21 11:08:54;;;;;;;8.30;5.03;;;;;;;12.58;59.79;154590.06;4904385;29;20454;-77
2023/02/21 11:11:37;;;;;;;5.57;3.50;;;;;;;12.54;59.46;154579.72;4906950;29;20453;-77
2023/02/21 11:14:25;;;;;;;9.27;4.03;;;;;;;12.55;59.24;154583.59;4903812;29;20548;-77
2023/02/21 11:17:14;;;;;;;5.80;4.90;;;;;;;12.64;60.11;154605.66;4902396;29;20482;-77
2023/02/21 11:19:51;;;;;;;5.70;4.40;;;;;;;12.75;59.12;154634.19;4904400;29;20462;-78
2023/02/21 11:22:20;;;;;;;5.60;4.20;;;;;;;12.64;59.09;154605.66;4904893;29;20566;-77
2023/02/21 11:25:04;;;;;;;5.90;3.97;;;;;;;12.80;59.30;154648.47;4902864;29;20641;-77
2023/02/21 11:27:34;;;;;;;7.00;4.67;;;;;;;12.79;58.58;154645.84;4892143;29;20458;-77
2023/02/21 11:30:02;;;;;;;5.73;4.00;;;;;;;12.75;58.88;154634.19;4902427;29;20450;-78
2023/02/21 11:32:32;;;;;;;4.40;3.60;;;;;;;12.81;59.00;154649.75;4905360;29;20463;-78
2023/02/21 11:35:05;;;;;;;8.40;3.77;;;;;;;13.00;57.93;154699.03;4901433;29;20458;-78
2023/02/21 11:37:31;;;;;;;4.30;3.67;;;;;;;13.02;57.97;154704.25;4904054;29;20498;-78
2023/02/21 11:40:00;;;;;;;4.60;3.60;;;;;;;13.22;56.85;154754.88;4906024;29;20498;-77
2023/02/21 11:42:29;;;;;;;4.00;3.50;;;;;;;13.20;56.66;154749.69;4908941;29;20748;-77
2023/02/21 11:45:11;;;;;;;4.00;3.60;;;;;;;13.11;56.78;154726.31;4889454;29;20449;-78
2023/02/21 11:47:43;;;;;;;3.73;3.43;;;;;;;13.16;56.58;154739.28;4902535;29;20552;-78
2023/02/21 11:50:13;;;;;;;4.53;3.53;;;;;;;13.14;56.82;154734.09;4903859;29;21089;-77
2023/02/21 11:52:44;;;;;;;4.20;3.63;;;;;;;13.23;55.90;154757.47;4904092;29;20853;-78
2023/02/21 11:55:13;;;;;;;4.40;3.60;;;;;;;13.07;57.10;154717.25;4903045;29;20461;-78
2023/02/21 11:57:46;;;;;;;4.97;3.53;;;;;;;13.08;57.00;154718.56;4901508;29;20466;-78
2023/02/21 12:00:22;;;;;;;4.50;3.20;;;;;;;13.19;56.05;154747.06;4906026;29;20482;-77
2023/02/21 12:03:04;;;;;;;3.07;2.80;;;;;;;13.26;55.73;154766.53;4906921;29;20541;-77
2023/02/21 12:05:38;;;;;;;4.60;3.60;;;;;;;13.16;56.07;154740.59;4892045;29;20957;-78
2023/02/21 12:08:18;;;;;;;6.00;3.77;;;;;;;13.33;55.80;154783.44;4903100;29;20957;-78
2023/02/21 12:10:54;;;;;;;3.80;2.90;;;;;;;13.37;54.87;154795.09;4905459;29;20486;-78
2023/02/21 12:13:37;;;;;;;4.90;3.10;;;;;;;13.43;54.49;154810.66;4903297;29;20453;-78
2023/02/21 12:16:11;;;;;;;3.40;3.10;;;;;;;13.45;54.67;154813.28;4903525;29;20971;-77
2023/02/21 12:18:46;;;;;;;3.20;2.90;;;;;;;13.50;54.04;154826.25;4900784;29;20466;-77
2023/02/21 12:21:31;;;;;;;2.97;2.10;;;;;;;13.63;53.50;154860.00;4901142;29;20464;-77
2023/02/21 12:24:05;;;;;;;4.20;3.10;;;;;;;13.55;54.03;154840.53;4901820;29;20545;-78
2023/02/21 12:26:46;;;;;;;3.60;2.60;;;;;;;13.41;54.89;154805.50;4902699;29;20485;-77
2023/02/21 12:29:24;;;;;;;3.00;2.60;;;;;;;13.48;54.40;154822.34;4903989;29;20980;-77
2023/02/21 12:32:04;;;;;;;3.50;2.60;;;;;;;13.66;53.42;154867.78;4902972;29;20550;-77
2023/02/21 12:34:38;;;;;;;1.93;1.73;;;;;;;13.60;53.58;154852.22;4905853;29;20473;-77
2023/02/21 12:37:18;;;;;;;3.73;2.60;;;;;;;13.64;53.99;154863.88;4899363;29;20537;-77
2023/02/21 12:40:09;;;;;;;3.23;2.40;;;;;;;13.66;52.98;154867.78;4904072;29;20493;-78
2023/02/21 12:42:53;;;;;;;6.23;2.00;;;;;;;13.83;52.86;154911.91;4883336;29;20482;-78
2023/02/21 12:45:33;;;;;;;3.80;2.30;;;;;;;13.76;52.39;154895.06;4898781;29;20450;-78
2023/02/21 12:48:06;;;;;;;4.40;2.33;;;;;;;13.89;52.96;154927.50;4901679;29;20508;-78
2023/02/21 12:50:36;;;;;;;3.00;2.70;;;;;;;13.71;52.32;154880.78;4900889;29;20456;-78
2023/02/21 12:53:09;;;;;;;2.23;1.73;;;;;;;13.96;52.69;154946.94;4901060;29;20449;-79
2023/02/21 12:55:38;;;;;;;5.13;2.07;;;;;;;13.99;52.29;154953.44;4905015;29;20824;-77
2023/02/21 12:58:13;;;;;;;3.13;2.33;;;;;;;14.01;52.20;154958.63;4905439;29;20985;-77
2023/02/21 13:00:43;;;;;;;3.33;2.37;;;;;;;14.02;51.91;154961.25;4892055;29;20453;-78
2023/02/21 13:03:23;;;;;;;3.80;2.00;;;;;;;13.88;51.75;154926.19;4900187;29;20850;-77
2023/02/21 13:05:53;;;;;;;3.03;2.40;;;;;;;13.97;52.50;154949.56;4888441;29;20449;-77
2023/02/21 13:08:22;;;;;;;3.40;2.50;;;;;;;13.90;52.49;154930.06;4903447;29;20466;-77
2023/02/21 13:10:53;;;;;;;3.17;1.90;;;;;;;13.88;51.55;154926.19;4905097;29;20454;-78
2023/02/21 13:13:23;;;;;;;3.37;2.10;;;;;;;13.86;52.18;154919.69;4902540;29;20553;-77
2023/02/21 13:15:52;;;;;;;3.17;2.30;;;;;;;13.96;52.15;154945.66;4903285;29;20450;-78
2023/02/21 13:18:25;;;;;;;4.50;2.87;;;;;;;14.09;51.53;154979.41;4904380;29;20458;-77
2023/02/21 13:20:54;;;;;;;2.53;2.30;;;;;;;14.09;52.12;154978.09;4906039;29;20462;-78
2023/02/21 13:26:57;;;;;;;2.83;2.20;;;;;;;13.91;52.27;154932.66;4874686;29;20603;-78
2023/02/21 13:29:25;;;;;;;3.10;2.10;;;;;;;13.85;52.71;154917.06;4901146;29;20451;-78
2023/02/21 13:31:59;;;;;;;3.00;2.10;;;;;;;14.03;52.94;154963.84;4890943;29;20472;-77
2023/02/21 13:34:29;;;;;;;3.20;2.33;;;;;;;13.97;52.19;154948.25;4908703;29;20484;-78
2023/02/21 13:37:02;;;;;;;3.90;2.03;;;;;;;13.97;52.13;154948.25;4893744;29;20462;-78
2023/02/21 13:39:35;;;;;;;2.40;1.63;;;;;;;13.88;52.76;154926.19;4901989;29;20517;-78
2023/02/21 13:42:06;;;;;;;2.20;1.67;;;;;;;13.86;51.88;154919.69;4898068;29;20560;-78
2023/02/21 13:44:34;;;;;;;3.73;1.83;;;;;;;13.99;52.23;154953.44;4903753;29;20461;-78
2023/02/21 13:47:10;;;;;;;3.30;1.90;;;;;;;14.25;51.76;155020.94;4906672;29;20465;-77
2023/02/21 13:49:49;;;;;;;4.17;1.40;;;;;;;14.20;50.69;155007.97;4907727;29;20467;-78
2023/02/21 13:52:37;;;;;;;4.80;1.80;;;;;;;14.12;51.80;154987.19;4901799;29;20466;-78
2023/02/21 13:55:26;;;;;;;2.17;1.63;;;;;;;14.25;50.93;155020.94;4908083;29;20510;-78
2023/02/21 13:58:30;;;;;;;1.60;1.37;;;;;;;14.35;50.68;155045.72;4903128;29;20476;-78
2023/02/21 14:00:57;;;;;;;2.30;1.60;;;;;;;14.29;50.51;155030.06;4901892;29;20456;-78
2023/02/21 14:03:32;;;;;;;4.90;1.97;;;;;;;14.49;50.62;155083.34;4908841;29;20481;-78